sensor_id;sensor_type;location;lat;lon;timestamp;temperature;humidity
4399;DHT22;2213;49.720;7.296;2024-03-08T00:00:52;4.10;99.90
4399;DHT22;2213;49.720;7.296;2024-03-08T00:03:21;4.10;99.90
4399;DHT22;2213;49.720;7.296;2024-03-08T00:05:50;4.00;99.90
4399;DHT22;2213;49.720;7.296;2024-03-08T00:08:18;3.90;99.90
4399;DHT22;2213;49.720;7.296;2024-03-08T00:10:48;3.90;99.90
4399;DHT22;2213;49.720;7.296;2024-03-08T00:13:17;3.90;99.90
4399;DHT22;2213;49.720;7.296;2024-03-08T00:15:45;3.90;99.90
4399;DHT22;2213;49.720;7.296;2024-03-08T00:18:15;3.90;99.90
4399;DHT22;2213;49.720;7.296;2024-03-08T00:20:43;4.00;99.90
4399;DHT22;2213;49.720;7.296;2024-03-08T00:23:12;3.90;99.90
4399;DHT22;2213;49.720;7.296;2024-03-08T00:25:42;3.80;99.90
4399;DHT22;2213;49.720;7.296;2024-03-08T00:28:12;3.80;99.90
4399;DHT22;2213;49.720;7.296;2024-03-08T00:30:43;3.80;99.90
4399;DHT22;2213;49.720;7.296;2024-03-08T00:33:12;3.80;99.90
4399;DHT22;2213;49.720;7.296;2024-03-08T00:35:40;3.70;99.90
4399;DHT22;2213;49.720;7.296;2024-03-08T00:38:09;3.60;99.90
4399;DHT22;2213;49.720;7.296;2024-03-08T00:40:37;3.60;99.90
4399;DHT22;2213;49.720;7.296;2024-03-08T00:43:07;3.60;99.90
4399;DHT22;2213;49.720;7.296;2024-03-08T00:45:37;3.50;99.90
4399;DHT22;2213;49.720;7.296;2024-03-08T00:48:06;3.50;99.90
4399;DHT22;2213;49.720;7.296;2024-03-08T00:50:34;3.50;99.90
4399;DHT22;2213;49.720;7.296;2024-03-08T00:53:03;3.50;99.90
4399;DHT22;2213;49.720;7.296;2024-03-08T00:55:32;3.40;99.90
4399;DHT22;2213;49.720;7.296;2024-03-08T00:58:01;3.40;99.90
4399;DHT22;2213;49.720;7.296;2024-03-08T01:00:30;3.40;99.90
4399;DHT22;2213;49.720;7.296;2024-03-08T01:03:00;3.40;99.90
4399;DHT22;2213;49.720;7.296;2024-03-08T01:05:30;3.30;99.90
4399;DHT22;2213;49.720;7.296;2024-03-08T01:07:58;3.10;99.90
4399;DHT22;2213;49.720;7.296;2024-03-08T01:10:27;3.10;99.90
4399;DHT22;2213;49.720;7.296;2024-03-08T01:12:55;3.10;99.90
4399;DHT22;2213;49.720;7.296;2024-03-08T01:15:26;3.20;99.90
4399;DHT22;2213;49.720;7.296;2024-03-08T01:17:54;3.10;99.90
4399;DHT22;2213;49.720;7.296;2024-03-08T01:20:24;3.10;99.90
4399;DHT22;2213;49.720;7.296;2024-03-08T01:22:53;3.10;99.90
4399;DHT22;2213;49.720;7.296;2024-03-08T01:25:21;3.10;99.90
4399;DHT22;2213;49.720;7.296;2024-03-08T01:27:50;3.00;99.90
4399;DHT22;2213;49.720;7.296;2024-03-08T01:30:20;3.10;99.90
4399;DHT22;2213;49.720;7.296;2024-03-08T01:32:48;3.10;99.90
4399;DHT22;2213;49.720;7.296;2024-03-08T01:35:17;3.10;99.90
4399;DHT22;2213;49.720;7.296;2024-03-08T01:37:50;3.00;99.90
4399;DHT22;2213;49.720;7.296;2024-03-08T01:40:18;3.10;99.90
4399;DHT22;2213;49.720;7.296;2024-03-08T01:42:47;2.90;99.90
4399;DHT22;2213;49.720;7.296;2024-03-08T01:45:15;2.90;99.90
4399;DHT22;2213;49.720;7.296;2024-03-08T01:47:44;2.90;99.90
4399;DHT22;2213;49.720;7.296;2024-03-08T01:50:15;3.00;99.90
4399;DHT22;2213;49.720;7.296;2024-03-08T01:52:44;3.00;99.90
4399;DHT22;2213;49.720;7.296;2024-03-08T01:55:14;3.00;99.90
4399;DHT22;2213;49.720;7.296;2024-03-08T01:57:43;3.10;99.90
4399;DHT22;2213;49.720;7.296;2024-03-08T02:00:12;3.00;99.90
4399;DHT22;2213;49.720;7.296;2024-03-08T02:02:43;2.90;99.90
4399;DHT22;2213;49.720;7.296;2024-03-08T02:05:15;3.00;99.90
4399;DHT22;2213;49.720;7.296;2024-03-08T02:07:43;3.00;99.90
4399;DHT22;2213;49.720;7.296;2024-03-08T02:10:13;3.00;99.90
4399;DHT22;2213;49.720;7.296;2024-03-08T02:12:42;3.00;99.90
4399;DHT22;2213;49.720;7.296;2024-03-08T02:15:10;2.90;99.90
4399;DHT22;2213;49.720;7.296;2024-03-08T02:17:39;2.90;99.90
4399;DHT22;2213;49.720;7.296;2024-03-08T02:20:09;2.90;99.90
4399;DHT22;2213;49.720;7.296;2024-03-08T02:22:42;2.90;99.90
4399;DHT22;2213;49.720;7.296;2024-03-08T02:25:11;2.90;99.90
4399;DHT22;2213;49.720;7.296;2024-03-08T02:27:39;2.80;99.90
4399;DHT22;2213;49.720;7.296;2024-03-08T02:30:09;2.80;99.90
4399;DHT22;2213;49.720;7.296;2024-03-08T02:32:39;2.80;99.90
4399;DHT22;2213;49.720;7.296;2024-03-08T02:35:08;2.80;99.90
4399;DHT22;2213;49.720;7.296;2024-03-08T02:37:37;2.80;99.90
4399;DHT22;2213;49.720;7.296;2024-03-08T02:40:08;2.60;99.90
4399;DHT22;2213;49.720;7.296;2024-03-08T02:42:39;2.70;99.90
4399;DHT22;2213;49.720;7.296;2024-03-08T02:45:08;2.70;99.90
4399;DHT22;2213;49.720;7.296;2024-03-08T02:47:37;2.60;99.90
4399;DHT22;2213;49.720;7.296;2024-03-08T02:50:06;2.70;99.90
4399;DHT22;2213;49.720;7.296;2024-03-08T02:52:35;2.70;99.90
4399;DHT22;2213;49.720;7.296;2024-03-08T02:55:05;2.70;99.90
4399;DHT22;2213;49.720;7.296;2024-03-08T02:57:39;2.60;99.90
4399;DHT22;2213;49.720;7.296;2024-03-08T03:00:08;2.70;99.90
4399;DHT22;2213;49.720;7.296;2024-03-08T03:02:37;2.70;99.90
4399;DHT22;2213;49.720;7.296;2024-03-08T03:05:06;2.70;99.90
4399;DHT22;2213;49.720;7.296;2024-03-08T03:07:36;2.70;99.90
4399;DHT22;2213;49.720;7.296;2024-03-08T03:10:08;2.50;99.90
4399;DHT22;2213;49.720;7.296;2024-03-08T03:12:36;2.60;99.90
4399;DHT22;2213;49.720;7.296;2024-03-08T03:15:05;2.60;99.90
4399;DHT22;2213;49.720;7.296;2024-03-08T03:17:35;2.50;99.90
4399;DHT22;2213;49.720;7.296;2024-03-08T03:20:05;2.40;99.90
4399;DHT22;2213;49.720;7.296;2024-03-08T03:22:37;2.40;99.90
4399;DHT22;2213;49.720;7.296;2024-03-08T03:25:09;2.30;99.90
4399;DHT22;2213;49.720;7.296;2024-03-08T03:27:39;2.40;99.90
4399;DHT22;2213;49.720;7.296;2024-03-08T03:30:09;2.20;99.90
4399;DHT22;2213;49.720;7.296;2024-03-08T03:32:48;2.30;99.90
4399;DHT22;2213;49.720;7.296;2024-03-08T03:35:18;2.20;99.90
4399;DHT22;2213;49.720;7.296;2024-03-08T03:37:48;2.20;99.90
4399;DHT22;2213;49.720;7.296;2024-03-08T03:40:30;2.00;99.90
4399;DHT22;2213;49.720;7.296;2024-03-08T03:42:58;2.00;99.90
4399;DHT22;2213;49.720;7.296;2024-03-08T03:45:27;2.10;99.90
4399;DHT22;2213;49.720;7.296;2024-03-08T03:47:55;2.20;99.90
4399;DHT22;2213;49.720;7.296;2024-03-08T03:50:24;2.00;99.90
4399;DHT22;2213;49.720;7.296;2024-03-08T03:52:52;2.10;99.90
4399;DHT22;2213;49.720;7.296;2024-03-08T03:55:21;2.10;99.90
4399;DHT22;2213;49.720;7.296;2024-03-08T03:57:51;2.10;99.90
4399;DHT22;2213;49.720;7.296;2024-03-08T04:00:19;2.10;99.90
4399;DHT22;2213;49.720;7.296;2024-03-08T04:02:48;1.90;99.90
4399;DHT22;2213;49.720;7.296;2024-03-08T04:05:18;1.90;99.90
4399;DHT22;2213;49.720;7.296;2024-03-08T04:07:46;2.00;99.90
4399;DHT22;2213;49.720;7.296;2024-03-08T04:10:15;1.80;99.90
4399;DHT22;2213;49.720;7.296;2024-03-08T04:12:43;1.80;99.90
4399;DHT22;2213;49.720;7.296;2024-03-08T04:15:13;1.90;99.90
4399;DHT22;2213;49.720;7.296;2024-03-08T04:17:42;1.80;99.90
4399;DHT22;2213;49.720;7.296;2024-03-08T04:20:13;1.90;99.90
4399;DHT22;2213;49.720;7.296;2024-03-08T04:22:42;1.90;99.90
4399;DHT22;2213;49.720;7.296;2024-03-08T04:25:11;1.80;99.90
4399;DHT22;2213;49.720;7.296;2024-03-08T04:27:39;1.80;99.90
4399;DHT22;2213;49.720;7.296;2024-03-08T04:30:10;1.80;99.90
4399;DHT22;2213;49.720;7.296;2024-03-08T04:32:41;1.80;99.90
4399;DHT22;2213;49.720;7.296;2024-03-08T04:35:10;1.90;99.90
4399;DHT22;2213;49.720;7.296;2024-03-08T04:37:39;1.90;99.90
4399;DHT22;2213;49.720;7.296;2024-03-08T04:40:08;1.80;99.90
4399;DHT22;2213;49.720;7.296;2024-03-08T04:42:39;1.90;99.90
4399;DHT22;2213;49.720;7.296;2024-03-08T04:45:10;1.90;99.90
4399;DHT22;2213;49.720;7.296;2024-03-08T04:47:40;1.90;99.90
4399;DHT22;2213;49.720;7.296;2024-03-08T04:50:09;1.90;99.90
4399;DHT22;2213;49.720;7.296;2024-03-08T04:52:38;1.90;99.90
4399;DHT22;2213;49.720;7.296;2024-03-08T04:55:06;1.90;99.90
4399;DHT22;2213;49.720;7.296;2024-03-08T04:57:36;1.80;99.90
4399;DHT22;2213;49.720;7.296;2024-03-08T05:00:05;1.80;99.90
4399;DHT22;2213;49.720;7.296;2024-03-08T05:02:38;1.80;99.90
4399;DHT22;2213;49.720;7.296;2024-03-08T05:05:08;1.70;99.90
4399;DHT22;2213;49.720;7.296;2024-03-08T05:07:38;1.70;99.90
4399;DHT22;2213;49.720;7.296;2024-03-08T05:10:07;1.70;99.90
4399;DHT22;2213;49.720;7.296;2024-03-08T05:12:36;1.70;99.90
4399;DHT22;2213;49.720;7.296;2024-03-08T05:15:06;1.60;99.90
4399;DHT22;2213;49.720;7.296;2024-03-08T05:17:35;1.60;99.90
4399;DHT22;2213;49.720;7.296;2024-03-08T05:20:04;1.70;99.90
4399;DHT22;2213;49.720;7.296;2024-03-08T05:22:36;1.60;99.90
4399;DHT22;2213;49.720;7.296;2024-03-08T05:25:05;1.60;99.90
4399;DHT22;2213;49.720;7.296;2024-03-08T05:27:35;1.50;99.90
4399;DHT22;2213;49.720;7.296;2024-03-08T05:30:05;1.50;99.90
4399;DHT22;2213;49.720;7.296;2024-03-08T05:32:34;1.50;99.90
4399;DHT22;2213;49.720;7.296;2024-03-08T05:35:05;1.50;99.90
4399;DHT22;2213;49.720;7.296;2024-03-08T05:37:35;1.50;99.90
4399;DHT22;2213;49.720;7.296;2024-03-08T05:40:05;1.40;99.90
4399;DHT22;2213;49.720;7.296;2024-03-08T05:42:42;1.30;99.90
4399;DHT22;2213;49.720;7.296;2024-03-08T05:45:11;1.30;99.90
4399;DHT22;2213;49.720;7.296;2024-03-08T05:47:41;1.10;99.90
4399;DHT22;2213;49.720;7.296;2024-03-08T05:50:10;1.10;99.90
4399;DHT22;2213;49.720;7.296;2024-03-08T05:52:40;1.10;99.90
4399;DHT22;2213;49.720;7.296;2024-03-08T05:55:08;0.90;99.90
4399;DHT22;2213;49.720;7.296;2024-03-08T05:57:37;1.00;99.90
4399;DHT22;2213;49.720;7.296;2024-03-08T06:00:08;0.90;99.90
4399;DHT22;2213;49.720;7.296;2024-03-08T06:02:38;0.90;99.90
4399;DHT22;2213;49.720;7.296;2024-03-08T06:05:09;0.90;99.90
4399;DHT22;2213;49.720;7.296;2024-03-08T06:07:39;1.00;99.90
4399;DHT22;2213;49.720;7.296;2024-03-08T06:10:09;0.90;99.90
4399;DHT22;2213;49.720;7.296;2024-03-08T06:12:39;0.90;99.90
4399;DHT22;2213;49.720;7.296;2024-03-08T06:15:09;0.80;99.90
4399;DHT22;2213;49.720;7.296;2024-03-08T06:17:42;0.80;99.90
4399;DHT22;2213;49.720;7.296;2024-03-08T06:20:11;0.90;99.90
4399;DHT22;2213;49.720;7.296;2024-03-08T06:22:42;0.80;99.90
4399;DHT22;2213;49.720;7.296;2024-03-08T06:25:11;0.80;99.90
4399;DHT22;2213;49.720;7.296;2024-03-08T06:27:42;0.70;99.90
4399;DHT22;2213;49.720;7.296;2024-03-08T06:30:11;0.80;99.90
4399;DHT22;2213;49.720;7.296;2024-03-08T06:32:40;0.90;99.90
4399;DHT22;2213;49.720;7.296;2024-03-08T06:35:10;0.80;99.90
4399;DHT22;2213;49.720;7.296;2024-03-08T06:37:38;0.80;99.90
4399;DHT22;2213;49.720;7.296;2024-03-08T06:40:11;0.80;99.90
4399;DHT22;2213;49.720;7.296;2024-03-08T06:42:41;0.70;99.90
4399;DHT22;2213;49.720;7.296;2024-03-08T06:45:10;0.80;99.90
4399;DHT22;2213;49.720;7.296;2024-03-08T06:47:40;0.80;99.90
4399;DHT22;2213;49.720;7.296;2024-03-08T06:50:10;0.90;99.90
4399;DHT22;2213;49.720;7.296;2024-03-08T06:52:39;1.00;99.90
4399;DHT22;2213;49.720;7.296;2024-03-08T06:55:10;1.10;99.90
4399;DHT22;2213;49.720;7.296;2024-03-08T06:57:39;1.20;99.90
4399;DHT22;2213;49.720;7.296;2024-03-08T07:00:09;1.30;99.90
4399;DHT22;2213;49.720;7.296;2024-03-08T07:02:40;1.30;99.90
4399;DHT22;2213;49.720;7.296;2024-03-08T07:05:12;1.40;99.90
4399;DHT22;2213;49.720;7.296;2024-03-08T07:07:41;1.40;99.90
4399;DHT22;2213;49.720;7.296;2024-03-08T07:10:11;1.50;99.90
4399;DHT22;2213;49.720;7.296;2024-03-08T07:12:42;1.50;99.90
4399;DHT22;2213;49.720;7.296;2024-03-08T07:15:10;1.50;99.90
4399;DHT22;2213;49.720;7.296;2024-03-08T07:17:42;1.60;99.90
4399;DHT22;2213;49.720;7.296;2024-03-08T07:20:12;1.70;99.90
4399;DHT22;2213;49.720;7.296;2024-03-08T07:22:42;1.60;99.90
4399;DHT22;2213;49.720;7.296;2024-03-08T07:25:16;1.60;99.90
4399;DHT22;2213;49.720;7.296;2024-03-08T07:27:49;1.70;99.90
4399;DHT22;2213;49.720;7.296;2024-03-08T07:30:19;1.80;99.90
4399;DHT22;2213;49.720;7.296;2024-03-08T07:33:04;1.90;99.90
4399;DHT22;2213;49.720;7.296;2024-03-08T07:35:34;2.00;99.90
4399;DHT22;2213;49.720;7.296;2024-03-08T07:38:04;2.00;99.90
4399;DHT22;2213;49.720;7.296;2024-03-08T07:40:36;2.00;99.90
4399;DHT22;2213;49.720;7.296;2024-03-08T07:43:07;2.00;99.90
4399;DHT22;2213;49.720;7.296;2024-03-08T07:45:37;2.00;99.90
4399;DHT22;2213;49.720;7.296;2024-03-08T07:48:06;2.00;99.90
4399;DHT22;2213;49.720;7.296;2024-03-08T07:50:37;2.10;99.90
4399;DHT22;2213;49.720;7.296;2024-03-08T07:53:07;2.10;99.90
4399;DHT22;2213;49.720;7.296;2024-03-08T07:55:38;2.10;99.90
4399;DHT22;2213;49.720;7.296;2024-03-08T07:58:09;2.20;99.90
4399;DHT22;2213;49.720;7.296;2024-03-08T08:00:39;2.10;99.90
4399;DHT22;2213;49.720;7.296;2024-03-08T08:03:10;2.20;99.90
4399;DHT22;2213;49.720;7.296;2024-03-08T08:05:39;2.20;99.90
4399;DHT22;2213;49.720;7.296;2024-03-08T08:08:08;2.30;99.90
4399;DHT22;2213;49.720;7.296;2024-03-08T08:10:39;2.40;99.90
4399;DHT22;2213;49.720;7.296;2024-03-08T08:13:09;2.40;99.90
4399;DHT22;2213;49.720;7.296;2024-03-08T08:15:38;2.50;99.90
4399;DHT22;2213;49.720;7.296;2024-03-08T08:18:07;2.60;99.90
4399;DHT22;2213;49.720;7.296;2024-03-08T08:20:37;2.60;99.90
4399;DHT22;2213;49.720;7.296;2024-03-08T08:23:05;2.70;99.90
4399;DHT22;2213;49.720;7.296;2024-03-08T08:25:34;2.60;99.90
4399;DHT22;2213;49.720;7.296;2024-03-08T08:28:04;2.70;99.90
4399;DHT22;2213;49.720;7.296;2024-03-08T08:30:33;2.80;99.90
4399;DHT22;2213;49.720;7.296;2024-03-08T08:33:01;2.80;99.90
4399;DHT22;2213;49.720;7.296;2024-03-08T08:35:32;2.90;99.90
4399;DHT22;2213;49.720;7.296;2024-03-08T08:38:00;2.90;99.90
4399;DHT22;2213;49.720;7.296;2024-03-08T08:40:30;3.00;99.90
4399;DHT22;2213;49.720;7.296;2024-03-08T08:43:00;3.00;99.90
4399;DHT22;2213;49.720;7.296;2024-03-08T08:45:32;3.20;99.90
4399;DHT22;2213;49.720;7.296;2024-03-08T08:48:01;3.20;99.90
4399;DHT22;2213;49.720;7.296;2024-03-08T08:50:29;3.30;99.90
4399;DHT22;2213;49.720;7.296;2024-03-08T08:52:58;3.30;99.90
4399;DHT22;2213;49.720;7.296;2024-03-08T08:55:26;3.40;99.90
4399;DHT22;2213;49.720;7.296;2024-03-08T08:57:56;3.40;99.90
4399;DHT22;2213;49.720;7.296;2024-03-08T09:00:24;3.50;99.90
4399;DHT22;2213;49.720;7.296;2024-03-08T09:02:56;3.60;99.90
4399;DHT22;2213;49.720;7.296;2024-03-08T09:05:25;3.70;99.90
4399;DHT22;2213;49.720;7.296;2024-03-08T09:07:54;3.70;99.90
4399;DHT22;2213;49.720;7.296;2024-03-08T09:10:23;3.70;99.90
4399;DHT22;2213;49.720;7.296;2024-03-08T09:12:55;3.80;99.90
4399;DHT22;2213;49.720;7.296;2024-03-08T09:15:23;3.80;99.90
4399;DHT22;2213;49.720;7.296;2024-03-08T09:17:57;3.90;99.90
4399;DHT22;2213;49.720;7.296;2024-03-08T09:20:26;3.90;99.90
4399;DHT22;2213;49.720;7.296;2024-03-08T09:22:56;3.90;99.90
4399;DHT22;2213;49.720;7.296;2024-03-08T09:25:25;3.90;99.90
4399;DHT22;2213;49.720;7.296;2024-03-08T09:27:53;4.10;99.90
4399;DHT22;2213;49.720;7.296;2024-03-08T09:30:22;4.00;99.90
4399;DHT22;2213;49.720;7.296;2024-03-08T09:32:50;4.10;99.90
4399;DHT22;2213;49.720;7.296;2024-03-08T09:35:23;4.20;99.90
4399;DHT22;2213;49.720;7.296;2024-03-08T09:37:51;4.30;99.90
4399;DHT22;2213;49.720;7.296;2024-03-08T09:40:20;4.30;99.90
4399;DHT22;2213;49.720;7.296;2024-03-08T09:42:51;4.40;99.90
4399;DHT22;2213;49.720;7.296;2024-03-08T09:45:21;4.40;99.90
4399;DHT22;2213;49.720;7.296;2024-03-08T09:47:50;4.40;99.90
4399;DHT22;2213;49.720;7.296;2024-03-08T09:50:20;4.50;99.90
4399;DHT22;2213;49.720;7.296;2024-03-08T09:52:50;4.50;99.90
4399;DHT22;2213;49.720;7.296;2024-03-08T09:55:19;4.50;99.90
4399;DHT22;2213;49.720;7.296;2024-03-08T09:57:51;4.50;99.90
4399;DHT22;2213;49.720;7.296;2024-03-08T10:00:36;4.50;99.90
4399;DHT22;2213;49.720;7.296;2024-03-08T10:03:04;4.60;99.90
4399;DHT22;2213;49.720;7.296;2024-03-08T10:05:33;4.60;99.90
4399;DHT22;2213;49.720;7.296;2024-03-08T10:08:03;4.70;99.90
4399;DHT22;2213;49.720;7.296;2024-03-08T10:10:33;4.70;99.90
4399;DHT22;2213;49.720;7.296;2024-03-08T10:13:02;4.80;99.90
4399;DHT22;2213;49.720;7.296;2024-03-08T10:15:33;4.80;99.90
4399;DHT22;2213;49.720;7.296;2024-03-08T10:18:01;4.90;99.90
4399;DHT22;2213;49.720;7.296;2024-03-08T10:20:31;4.90;99.90
4399;DHT22;2213;49.720;7.296;2024-03-08T10:23:01;4.90;99.90
4399;DHT22;2213;49.720;7.296;2024-03-08T10:25:37;5.00;99.90
4399;DHT22;2213;49.720;7.296;2024-03-08T10:28:06;5.00;99.90
4399;DHT22;2213;49.720;7.296;2024-03-08T10:30:36;5.10;99.90
4399;DHT22;2213;49.720;7.296;2024-03-08T10:33:05;5.10;99.90
4399;DHT22;2213;49.720;7.296;2024-03-08T10:35:34;5.10;99.90
4399;DHT22;2213;49.720;7.296;2024-03-08T10:38:05;5.10;99.90
4399;DHT22;2213;49.720;7.296;2024-03-08T10:40:40;5.20;99.90
4399;DHT22;2213;49.720;7.296;2024-03-08T10:43:15;5.20;99.90
4399;DHT22;2213;49.720;7.296;2024-03-08T10:46:03;5.30;99.90
4399;DHT22;2213;49.720;7.296;2024-03-08T10:48:43;5.30;99.90
4399;DHT22;2213;49.720;7.296;2024-03-08T10:51:14;5.30;99.90
4399;DHT22;2213;49.720;7.296;2024-03-08T10:53:46;5.30;99.90
4399;DHT22;2213;49.720;7.296;2024-03-08T10:56:18;5.30;99.90
4399;DHT22;2213;49.720;7.296;2024-03-08T10:58:47;5.30;99.90
4399;DHT22;2213;49.720;7.296;2024-03-08T11:01:16;5.30;99.90
4399;DHT22;2213;49.720;7.296;2024-03-08T11:03:45;5.40;99.90
4399;DHT22;2213;49.720;7.296;2024-03-08T11:06:29;5.40;99.90
4399;DHT22;2213;49.720;7.296;2024-03-08T11:09:00;5.60;99.90
4399;DHT22;2213;49.720;7.296;2024-03-08T11:11:29;5.70;99.90
4399;DHT22;2213;49.720;7.296;2024-03-08T11:14:02;5.70;99.90
4399;DHT22;2213;49.720;7.296;2024-03-08T11:16:39;5.60;99.90
4399;DHT22;2213;49.720;7.296;2024-03-08T11:19:27;5.60;99.90
4399;DHT22;2213;49.720;7.296;2024-03-08T11:22:00;5.70;99.90
4399;DHT22;2213;49.720;7.296;2024-03-08T11:24:38;5.70;99.90
4399;DHT22;2213;49.720;7.296;2024-03-08T11:27:12;5.80;99.90
4399;DHT22;2213;49.720;7.296;2024-03-08T11:29:41;5.80;99.90
4399;DHT22;2213;49.720;7.296;2024-03-08T11:32:11;5.90;99.90
4399;DHT22;2213;49.720;7.296;2024-03-08T11:34:42;5.90;99.90
4399;DHT22;2213;49.720;7.296;2024-03-08T11:37:14;6.00;99.90
4399;DHT22;2213;49.720;7.296;2024-03-08T11:39:50;6.00;99.90
4399;DHT22;2213;49.720;7.296;2024-03-08T11:42:25;6.00;99.90
4399;DHT22;2213;49.720;7.296;2024-03-08T11:44:54;6.10;99.90
4399;DHT22;2213;49.720;7.296;2024-03-08T11:47:23;6.10;99.90
4399;DHT22;2213;49.720;7.296;2024-03-08T11:49:53;6.10;99.90
4399;DHT22;2213;49.720;7.296;2024-03-08T11:52:22;6.10;99.90
4399;DHT22;2213;49.720;7.296;2024-03-08T11:54:54;6.10;99.90
4399;DHT22;2213;49.720;7.296;2024-03-08T11:57:25;6.20;99.90
4399;DHT22;2213;49.720;7.296;2024-03-08T11:59:56;6.20;99.90
4399;DHT22;2213;49.720;7.296;2024-03-08T12:02:25;6.20;99.90
4399;DHT22;2213;49.720;7.296;2024-03-08T12:04:58;6.20;99.90
4399;DHT22;2213;49.720;7.296;2024-03-08T12:07:30;6.30;99.90
4399;DHT22;2213;49.720;7.296;2024-03-08T12:10:17;6.30;99.90
4399;DHT22;2213;49.720;7.296;2024-03-08T12:12:49;6.40;99.90
4399;DHT22;2213;49.720;7.296;2024-03-08T12:15:22;6.50;99.90
4399;DHT22;2213;49.720;7.296;2024-03-08T12:17:53;6.40;99.90
4399;DHT22;2213;49.720;7.296;2024-03-08T12:20:25;6.50;99.90
4399;DHT22;2213;49.720;7.296;2024-03-08T12:22:57;6.50;99.90
4399;DHT22;2213;49.720;7.296;2024-03-08T12:25:30;6.60;99.90
4399;DHT22;2213;49.720;7.296;2024-03-08T12:28:08;6.70;99.90
4399;DHT22;2213;49.720;7.296;2024-03-08T12:30:46;6.60;99.90
4399;DHT22;2213;49.720;7.296;2024-03-08T12:33:16;6.70;99.90
4399;DHT22;2213;49.720;7.296;2024-03-08T12:35:51;6.70;99.90
4399;DHT22;2213;49.720;7.296;2024-03-08T12:38:28;6.80;99.90
4399;DHT22;2213;49.720;7.296;2024-03-08T12:41:01;6.80;99.90
4399;DHT22;2213;49.720;7.296;2024-03-08T12:43:30;6.80;99.90
4399;DHT22;2213;49.720;7.296;2024-03-08T12:46:01;6.90;99.90
4399;DHT22;2213;49.720;7.296;2024-03-08T12:48:34;6.90;99.90
4399;DHT22;2213;49.720;7.296;2024-03-08T12:51:04;6.90;99.90
4399;DHT22;2213;49.720;7.296;2024-03-08T12:53:34;7.00;99.90
4399;DHT22;2213;49.720;7.296;2024-03-08T12:56:04;7.00;99.90
4399;DHT22;2213;49.720;7.296;2024-03-08T12:58:35;7.10;99.90
4399;DHT22;2213;49.720;7.296;2024-03-08T13:01:05;7.10;99.90
4399;DHT22;2213;49.720;7.296;2024-03-08T13:03:35;7.10;99.90
4399;DHT22;2213;49.720;7.296;2024-03-08T13:06:04;7.20;99.90
4399;DHT22;2213;49.720;7.296;2024-03-08T13:08:35;7.30;99.90
4399;DHT22;2213;49.720;7.296;2024-03-08T13:11:07;7.40;99.90
4399;DHT22;2213;49.720;7.296;2024-03-08T13:13:38;7.40;99.90
4399;DHT22;2213;49.720;7.296;2024-03-08T13:16:08;7.40;99.90
4399;DHT22;2213;49.720;7.296;2024-03-08T13:18:38;7.40;99.90
4399;DHT22;2213;49.720;7.296;2024-03-08T13:21:07;7.50;99.90
4399;DHT22;2213;49.720;7.296;2024-03-08T13:23:37;7.50;99.90
4399;DHT22;2213;49.720;7.296;2024-03-08T13:26:09;7.60;99.90
4399;DHT22;2213;49.720;7.296;2024-03-08T13:28:39;7.40;99.90
4399;DHT22;2213;49.720;7.296;2024-03-08T13:31:07;7.50;99.90
4399;DHT22;2213;49.720;7.296;2024-03-08T13:33:37;7.60;99.90
4399;DHT22;2213;49.720;7.296;2024-03-08T13:36:08;7.70;99.90
4399;DHT22;2213;49.720;7.296;2024-03-08T13:38:42;7.80;99.90
4399;DHT22;2213;49.720;7.296;2024-03-08T13:41:13;7.80;99.90
4399;DHT22;2213;49.720;7.296;2024-03-08T13:43:46;7.90;99.90
4399;DHT22;2213;49.720;7.296;2024-03-08T13:46:17;7.90;99.90
4399;DHT22;2213;49.720;7.296;2024-03-08T13:48:46;7.90;99.90
4399;DHT22;2213;49.720;7.296;2024-03-08T13:51:14;7.90;99.90
4399;DHT22;2213;49.720;7.296;2024-03-08T13:53:44;8.00;99.90
4399;DHT22;2213;49.720;7.296;2024-03-08T13:56:15;8.00;99.90
4399;DHT22;2213;49.720;7.296;2024-03-08T13:58:43;8.00;99.90
4399;DHT22;2213;49.720;7.296;2024-03-08T14:01:12;8.00;99.90
4399;DHT22;2213;49.720;7.296;2024-03-08T14:03:40;8.10;99.90
4399;DHT22;2213;49.720;7.296;2024-03-08T14:06:09;8.20;99.90
4399;DHT22;2213;49.720;7.296;2024-03-08T14:08:49;8.30;99.90
4399;DHT22;2213;49.720;7.296;2024-03-08T14:11:19;8.30;99.90
4399;DHT22;2213;49.720;7.296;2024-03-08T14:13:48;8.50;99.90
4399;DHT22;2213;49.720;7.296;2024-03-08T14:16:16;8.80;99.90
4399;DHT22;2213;49.720;7.296;2024-03-08T14:18:45;9.10;99.90
4399;DHT22;2213;49.720;7.296;2024-03-08T14:21:13;9.20;99.90
4399;DHT22;2213;49.720;7.296;2024-03-08T14:23:42;9.30;99.90
4399;DHT22;2213;49.720;7.296;2024-03-08T14:26:11;9.80;99.90
4399;DHT22;2213;49.720;7.296;2024-03-08T14:28:41;9.80;99.90
4399;DHT22;2213;49.720;7.296;2024-03-08T14:31:09;10.00;99.90
4399;DHT22;2213;49.720;7.296;2024-03-08T14:33:38;9.90;99.90
4399;DHT22;2213;49.720;7.296;2024-03-08T14:36:09;9.90;99.90
4399;DHT22;2213;49.720;7.296;2024-03-08T14:38:40;9.80;99.90
4399;DHT22;2213;49.720;7.296;2024-03-08T14:41:09;9.90;99.90
4399;DHT22;2213;49.720;7.296;2024-03-08T14:43:37;9.70;99.90
4399;DHT22;2213;49.720;7.296;2024-03-08T14:46:07;9.70;99.90
4399;DHT22;2213;49.720;7.296;2024-03-08T14:48:36;9.60;99.90
4399;DHT22;2213;49.720;7.296;2024-03-08T14:51:05;9.60;99.90
4399;DHT22;2213;49.720;7.296;2024-03-08T14:53:37;9.60;99.90
4399;DHT22;2213;49.720;7.296;2024-03-08T14:56:07;9.70;99.90
4399;DHT22;2213;49.720;7.296;2024-03-08T14:58:36;9.70;99.90
4399;DHT22;2213;49.720;7.296;2024-03-08T15:01:06;9.70;99.90
4399;DHT22;2213;49.720;7.296;2024-03-08T15:03:35;9.80;99.90
4399;DHT22;2213;49.720;7.296;2024-03-08T15:06:05;9.70;99.90
4399;DHT22;2213;49.720;7.296;2024-03-08T15:08:35;9.80;99.90
4399;DHT22;2213;49.720;7.296;2024-03-08T15:11:04;9.80;99.90
4399;DHT22;2213;49.720;7.296;2024-03-08T15:13:33;9.90;99.90
4399;DHT22;2213;49.720;7.296;2024-03-08T15:16:08;9.80;99.90
4399;DHT22;2213;49.720;7.296;2024-03-08T15:18:42;9.90;99.90
4399;DHT22;2213;49.720;7.296;2024-03-08T15:21:18;9.90;99.90
4399;DHT22;2213;49.720;7.296;2024-03-08T15:23:47;9.90;99.90
4399;DHT22;2213;49.720;7.296;2024-03-08T15:26:19;9.90;99.90
4399;DHT22;2213;49.720;7.296;2024-03-08T15:28:48;9.90;99.90
4399;DHT22;2213;49.720;7.296;2024-03-08T15:31:21;9.90;99.90
4399;DHT22;2213;49.720;7.296;2024-03-08T15:33:51;9.90;99.90
4399;DHT22;2213;49.720;7.296;2024-03-08T15:36:27;9.90;99.90
4399;DHT22;2213;49.720;7.296;2024-03-08T15:38:58;9.90;99.90
4399;DHT22;2213;49.720;7.296;2024-03-08T15:41:26;9.90;99.90
4399;DHT22;2213;49.720;7.296;2024-03-08T15:43:56;10.00;99.90
4399;DHT22;2213;49.720;7.296;2024-03-08T15:46:28;9.90;99.90
4399;DHT22;2213;49.720;7.296;2024-03-08T15:48:57;9.90;99.90
4399;DHT22;2213;49.720;7.296;2024-03-08T15:51:25;10.00;99.90
4399;DHT22;2213;49.720;7.296;2024-03-08T15:53:54;10.00;99.90
4399;DHT22;2213;49.720;7.296;2024-03-08T15:56:23;9.90;99.90
4399;DHT22;2213;49.720;7.296;2024-03-08T15:58:53;9.90;99.90
4399;DHT22;2213;49.720;7.296;2024-03-08T16:01:22;10.00;99.90
4399;DHT22;2213;49.720;7.296;2024-03-08T16:03:53;10.00;99.90
4399;DHT22;2213;49.720;7.296;2024-03-08T16:06:22;9.90;99.90
4399;DHT22;2213;49.720;7.296;2024-03-08T16:08:51;9.80;99.90
4399;DHT22;2213;49.720;7.296;2024-03-08T16:11:20;9.70;99.90
4399;DHT22;2213;49.720;7.296;2024-03-08T16:13:50;9.60;99.90
4399;DHT22;2213;49.720;7.296;2024-03-08T16:16:19;9.60;99.90
4399;DHT22;2213;49.720;7.296;2024-03-08T16:18:49;9.50;99.90
4399;DHT22;2213;49.720;7.296;2024-03-08T16:21:19;9.40;99.90
4399;DHT22;2213;49.720;7.296;2024-03-08T16:23:49;9.40;99.90
4399;DHT22;2213;49.720;7.296;2024-03-08T16:26:18;9.30;99.90
4399;DHT22;2213;49.720;7.296;2024-03-08T16:28:47;9.20;99.90
4399;DHT22;2213;49.720;7.296;2024-03-08T16:31:15;9.10;99.90
4399;DHT22;2213;49.720;7.296;2024-03-08T16:33:44;9.10;99.90
4399;DHT22;2213;49.720;7.296;2024-03-08T16:36:14;9.00;99.90